Time,TemperatureF,DewpointF,PressureIn,WindDirection,WindDirectionDegrees,WindSpeedMPH,WindSpeedGustMPH,Humidity,HourlyPrecipIn,Conditions,Clouds,dailyrainin,SoftwareType,DateUTC
2013-02-14 00:05:00,26.6,23.0,29.69,SSW,194,5.0,6.0,87,0.00,,,0.00,weatherlink.com 1.10,2013-02-14 05:05:00,
2013-02-14 00:20:00,26.6,23.0,29.69,SSW,202,2.0,4.0,87,0.00,,,0.00,weatherlink.com 1.10,2013-02-14 05:20:00,
2013-02-14 00:35:00,26.7,23.0,29.69,South,186,4.0,6.0,87,0.00,,,0.00,weatherlink.com 1.10,2013-02-14 05:35:00,
2013-02-14 00:50:00,26.7,23.0,29.69,SSW,194,4.0,8.0,87,0.00,,,0.00,weatherlink.com 1.10,2013-02-14 05:50:00,
2013-02-14 01:05:00,26.5,23.0,29.69,SSW,209,3.0,6.0,87,0.00,,,0.00,weatherlink.com 1.10,2013-02-14 06:05:00,
2013-02-14 01:20:00,26.5,23.0,29.69,South,169,4.0,9.0,87,0.00,,,0.00,weatherlink.com 1.10,2013-02-14 06:20:00,
2013-02-14 01:35:00,26.9,24.0,29.69,South,183,3.0,7.0,87,0.00,,,0.00,weatherlink.com 1.10,2013-02-14 06:35:00,
2013-02-14 01:50:00,27.0,24.0,29.69,South,180,4.0,6.0,87,0.00,,,0.00,weatherlink.com 1.10,2013-02-14 06:50:00,
2013-02-14 02:05:00,27.0,23.0,29.69,South,172,3.0,8.0,86,0.00,,,0.00,weatherlink.com 1.10,2013-02-14 07:05:00,
2013-02-14 02:20:00,26.5,23.0,29.69,SSW,197,3.0,6.0,87,0.00,,,0.00,weatherlink.com 1.10,2013-02-14 07:20:00,
2013-02-14 02:35:00,26.4,23.0,29.69,South,175,4.0,6.0,87,0.00,,,0.00,weatherlink.com 1.10,2013-02-14 07:35:00,
2013-02-14 02:50:00,26.6,23.0,29.69,South,174,4.0,7.0,87,0.00,,,0.00,weatherlink.com 1.10,2013-02-14 07:50:00,
2013-02-14 03:05:00,26.7,23.0,29.69,South,180,3.0,7.0,87,0.00,,,0.00,weatherlink.com 1.10,2013-02-14 08:05:00,
2013-02-14 03:20:00,27.8,24.0,29.69,SSW,208,5.0,8.0,86,0.00,,,0.00,weatherlink.com 1.10,2013-02-14 08:20:00,
2013-02-14 03:35:00,27.8,24.0,29.68,SSW,196,4.0,7.0,86,0.00,,,0.00,weatherlink.com 1.10,2013-02-14 08:35:00,
2013-02-14 03:50:00,27.6,24.0,29.68,SSE,163,4.0,8.0,86,0.00,,,0.00,weatherlink.com 1.10,2013-02-14 08:50:00,
2013-02-14 04:05:00,28.1,25.0,29.68,SSW,196,3.0,6.0,86,0.00,,,0.00,weatherlink.com 1.10,2013-02-14 09:05:00,
2013-02-14 04:20:00,28.6,25.0,29.68,South,186,3.0,5.0,85,0.00,,,0.00,weatherlink.com 1.10,2013-02-14 09:20:00,
2013-02-14 04:35:00,29.8,25.0,29.68,SSW,195,7.0,8.0,83,0.00,,,0.00,weatherlink.com 1.10,2013-02-14 09:35:00,
2013-02-14 04:50:00,29.9,25.0,29.68,SSW,192,6.0,7.0,82,0.00,,,0.00,weatherlink.com 1.10,2013-02-14 09:50:00,
2013-02-14 05:05:00,30.5,26.0,29.68,SSW,211,3.0,8.0,82,0.00,,,0.00,weatherlink.com 1.10,2013-02-14 10:05:00,
2013-02-14 05:20:00,30.7,26.0,29.68,SSW,192,3.0,8.0,81,0.00,,,0.00,weatherlink.com 1.10,2013-02-14 10:20:00,
2013-02-14 05:35:00,30.7,26.0,29.68,SSW,206,7.0,11.0,82,0.00,,,0.00,weatherlink.com 1.10,2013-02-14 10:35:00,
2013-02-14 05:50:00,31.1,26.0,29.68,South,189,9.0,10.0,81,0.00,,,0.00,weatherlink.com 1.10,2013-02-14 10:50:00,
2013-02-14 06:05:00,31.2,26.0,29.68,SSW,196,6.0,17.0,81,0.00,,,0.00,weatherlink.com 1.10,2013-02-14 11:05:00,
2013-02-14 06:20:00,31.4,27.0,29.68,SSW,196,4.0,11.0,82,0.00,,,0.00,weatherlink.com 1.10,2013-02-14 11:20:00,
2013-02-14 06:35:00,31.6,27.0,29.69,South,191,9.0,13.0,82,0.00,,,0.00,weatherlink.com 1.10,2013-02-14 11:35:00,
2013-02-14 06:50:00,31.8,27.0,29.69,SSW,202,9.0,13.0,82,0.00,,,0.00,weatherlink.com 1.10,2013-02-14 11:50:00,
2013-02-14 07:05:00,32.1,28.0,29.69,SSW,192,16.0,16.0,83,0.00,,,0.00,weatherlink.com 1.10,2013-02-14 12:05:00,
2013-02-14 07:20:00,32.1,28.0,29.70,SSW,196,7.0,12.0,83,0.00,,,0.00,weatherlink.com 1.10,2013-02-14 12:20:00,
2013-02-14 07:35:00,32.5,28.0,29.70,South,175,13.0,16.0,83,0.00,,,0.00,weatherlink.com 1.10,2013-02-14 12:35:00,
2013-02-14 07:50:00,32.5,28.0,29.70,SSW,202,7.0,16.0,83,0.00,,,0.00,weatherlink.com 1.10,2013-02-14 12:50:00,
2013-02-14 08:05:00,32.3,28.0,29.70,SSW,193,8.0,13.0,84,0.00,,,0.00,weatherlink.com 1.10,2013-02-14 13:05:00,
2013-02-14 08:20:00,32.6,28.0,29.70,SE,146,7.0,16.0,83,0.00,,,0.00,weatherlink.com 1.10,2013-02-14 13:20:00,
2013-02-14 08:35:00,32.8,28.0,29.71,SSW,213,7.0,17.0,83,0.00,,,0.00,weatherlink.com 1.10,2013-02-14 13:35:00,
2013-02-14 08:50:00,32.8,29.0,29.71,SW,215,4.0,17.0,84,0.00,,,0.00,weatherlink.com 1.10,2013-02-14 13:50:00,
2013-02-14 09:05:00,33.0,29.0,29.71,SSW,194,10.0,16.0,84,0.00,,,0.00,weatherlink.com 1.10,2013-02-14 14:05:00,
2013-02-14 09:20:00,33.5,29.0,29.70,SSW,208,11.0,15.0,84,0.00,,,0.00,weatherlink.com 1.10,2013-02-14 14:20:00,
2013-02-14 09:36:00,33.6,29.0,29.70,South,172,7.0,17.0,84,0.00,,,0.00,weatherlink.com 1.10,2013-02-14 14:36:00,
2013-02-14 09:51:00,33.9,30.0,29.70,SW,232,10.0,13.0,84,0.00,,,0.00,weatherlink.com 1.10,2013-02-14 14:51:00,
2013-02-14 10:06:00,34.3,30.0,29.69,SSW,192,8.0,12.0,84,0.00,,,0.00,weatherlink.com 1.10,2013-02-14 15:06:00,
2013-02-14 10:21:00,34.8,30.0,29.69,SSW,213,7.0,14.0,83,0.00,,,0.00,weatherlink.com 1.10,2013-02-14 15:21:00,
2013-02-14 10:36:00,35.3,31.0,29.69,SW,229,9.0,13.0,83,0.00,,,0.00,weatherlink.com 1.10,2013-02-14 15:36:00,
2013-02-14 10:51:00,35.9,31.0,29.68,SSW,199,11.0,16.0,82,0.00,,,0.00,weatherlink.com 1.10,2013-02-14 15:51:00,
2013-02-14 11:06:00,36.4,31.0,29.68,SSW,200,10.0,14.0,81,0.00,,,0.00,weatherlink.com 1.10,2013-02-14 16:06:00,
2013-02-14 11:21:00,36.6,31.0,29.68,South,182,7.0,17.0,81,0.00,,,0.00,weatherlink.com 1.10,2013-02-14 16:21:00,
2013-02-14 11:36:00,37.5,32.0,29.68,South,190,6.0,16.0,79,0.00,,,0.00,weatherlink.com 1.10,2013-02-14 16:36:00,
2013-02-14 11:51:00,38.0,32.0,29.67,SSW,197,5.0,16.0,78,0.00,,,0.00,weatherlink.com 1.10,2013-02-14 16:51:00,
2013-02-14 12:06:00,38.5,32.0,29.67,SSW,196,10.0,14.0,77,0.00,,,0.00,weatherlink.com 1.10,2013-02-14 17:06:00,
2013-02-14 12:21:00,38.8,32.0,29.67,SSW,211,10.0,14.0,77,0.00,,,0.00,weatherlink.com 1.10,2013-02-14 17:21:00,
2013-02-14 12:36:00,38.8,32.0,29.66,South,186,16.0,22.0,77,0.00,,,0.00,weatherlink.com 1.10,2013-02-14 17:36:00,
2013-02-14 12:51:00,38.6,32.0,29.66,SW,221,9.0,22.0,78,0.00,,,0.00,weatherlink.com 1.10,2013-02-14 17:51:00,
2013-02-14 13:06:00,38.8,32.0,29.65,SSW,203,12.0,20.0,77,0.00,,,0.00,weatherlink.com 1.10,2013-02-14 18:06:00,
2013-02-14 13:21:00,38.5,32.0,29.66,SW,217,7.0,21.0,78,0.00,,,0.00,weatherlink.com 1.10,2013-02-14 18:21:00,
2013-02-14 13:36:00,38.1,32.0,29.65,SSW,203,10.0,23.0,79,0.00,,,0.00,weatherlink.com 1.10,2013-02-14 18:36:00,
2013-02-14 13:51:00,38.5,33.0,29.65,South,184,12.0,20.0,79,0.00,,,0.00,weatherlink.com 1.10,2013-02-14 18:51:00,
2013-02-14 14:06:00,37.8,33.0,29.64,SSW,209,16.0,19.0,82,0.00,,,0.00,weatherlink.com 1.10,2013-02-14 19:06:00,
2013-02-14 14:21:00,38.1,32.0,29.64,South,185,12.0,25.0,80,0.00,,,0.00,weatherlink.com 1.10,2013-02-14 19:21:00,
2013-02-14 14:36:00,38.6,33.0,29.63,South,189,11.0,19.0,80,0.00,,,0.00,weatherlink.com 1.10,2013-02-14 19:36:00,
2013-02-14 14:51:00,38.9,33.0,29.62,SSW,200,7.0,17.0,79,0.00,,,0.00,weatherlink.com 1.10,2013-02-14 19:51:00,
2013-02-14 15:06:00,39.0,33.0,29.62,SSW,196,6.0,17.0,79,0.00,,,0.00,weatherlink.com 1.10,2013-02-14 20:06:00,
2013-02-14 15:21:00,38.7,33.0,29.61,SSW,202,7.0,20.0,79,0.00,,,0.00,weatherlink.com 1.10,2013-02-14 20:21:00,
2013-02-14 16:21:00,38.2,33.0,29.62,SSW,207,17.0,25.0,80,0.00,,,0.00,weatherlink.com 1.10,2013-02-14 21:21:00,
2013-02-14 16:36:00,37.7,33.0,29.62,SSW,195,7.0,25.0,83,0.00,,,0.00,weatherlink.com 1.10,2013-02-14 21:36:00,
2013-02-14 16:51:00,37.1,33.0,29.62,SSW,209,11.0,25.0,85,0.00,,,0.00,weatherlink.com 1.10,2013-02-14 21:51:00,
2013-02-14 17:06:00,37.0,33.0,29.62,SSW,206,15.0,23.0,86,0.00,,,0.00,weatherlink.com 1.10,2013-02-14 22:06:00,
2013-02-14 17:21:00,37.0,33.0,29.63,SSW,212,10.0,21.0,86,0.00,,,0.00,weatherlink.com 1.10,2013-02-14 22:21:00,
2013-02-14 17:36:00,37.2,33.0,29.64,SSW,207,16.0,21.0,86,0.00,,,0.00,weatherlink.com 1.10,2013-02-14 22:36:00,
2013-02-14 17:51:00,37.3,33.0,29.64,SSW,200,13.0,25.0,85,0.00,,,0.00,weatherlink.com 1.10,2013-02-14 22:51:00,
2013-02-14 18:06:00,37.5,33.0,29.64,South,175,16.0,20.0,85,0.00,,,0.00,weatherlink.com 1.10,2013-02-14 23:06:00,
2013-02-14 18:21:00,37.5,33.0,29.64,SSW,211,7.0,23.0,85,0.00,,,0.00,weatherlink.com 1.10,2013-02-14 23:21:00,
2013-02-14 18:36:00,37.6,34.0,29.64,SSW,212,10.0,19.0,85,0.00,,,0.00,weatherlink.com 1.10,2013-02-14 23:36:00,
2013-02-14 18:51:00,38.1,34.0,29.64,SSW,207,10.0,22.0,84,0.00,,,0.00,weatherlink.com 1.10,2013-02-14 23:51:00,
2013-02-14 19:06:00,38.2,34.0,29.63,SSW,208,14.0,21.0,84,0.00,,,0.00,weatherlink.com 1.10,2013-02-15 00:06:00,
2013-02-14 19:21:00,38.6,34.0,29.63,South,184,14.0,19.0,83,0.00,,,0.00,weatherlink.com 1.10,2013-02-15 00:21:00,
2013-02-14 19:36:00,38.9,34.0,29.64,SSW,200,7.0,21.0,83,0.00,,,0.00,weatherlink.com 1.10,2013-02-15 00:36:00,
2013-02-14 19:51:00,39.0,34.0,29.64,SSW,207,11.0,18.0,83,0.00,,,0.00,weatherlink.com 1.10,2013-02-15 00:51:00,
2013-02-14 20:06:00,39.4,35.0,29.65,SW,217,12.0,21.0,83,0.00,,,0.00,weatherlink.com 1.10,2013-02-15 01:06:00,
2013-02-14 20:22:00,40.1,35.0,29.66,SW,216,11.0,16.0,82,0.00,,,0.00,weatherlink.com 1.10,2013-02-15 01:22:00,
2013-02-14 20:37:00,40.5,35.0,29.67,West,277,5.0,24.0,80,0.00,,,0.00,weatherlink.com 1.10,2013-02-15 01:37:00,
2013-02-14 20:52:00,39.5,33.0,29.68,SW,232,13.0,25.0,77,0.00,,,0.00,weatherlink.com 1.10,2013-02-15 01:52:00,
2013-02-14 21:07:00,38.9,32.0,29.68,WSW,251,11.0,22.0,75,0.00,,,0.00,weatherlink.com 1.10,2013-02-15 02:07:00,
2013-02-14 21:22:00,38.5,31.0,29.69,West,270,10.0,23.0,74,0.00,,,0.00,weatherlink.com 1.10,2013-02-15 02:22:00,
2013-02-14 21:37:00,38.4,30.0,29.69,West,265,12.0,22.0,73,0.00,,,0.00,weatherlink.com 1.10,2013-02-15 02:37:00,
2013-02-14 21:52:00,38.5,31.0,29.70,WSW,254,14.0,24.0,73,0.00,,,0.00,weatherlink.com 1.10,2013-02-15 02:52:00,
2013-02-14 22:07:00,38.5,30.0,29.70,SW,221,14.0,21.0,72,0.00,,,0.00,weatherlink.com 1.10,2013-02-15 03:07:00,
2013-02-14 22:22:00,38.4,30.0,29.70,WSW,244,11.0,20.0,72,0.00,,,0.00,weatherlink.com 1.10,2013-02-15 03:22:00,
2013-02-14 22:37:00,38.5,30.0,29.70,SW,234,11.0,22.0,71,0.00,,,0.00,weatherlink.com 1.10,2013-02-15 03:37:00,
2013-02-14 22:52:00,38.5,30.0,29.70,WNW,282,10.0,26.0,71,0.00,,,0.00,weatherlink.com 1.10,2013-02-15 03:52:00,
2013-02-14 23:07:00,38.4,30.0,29.70,WSW,252,9.0,19.0,71,0.00,,,0.00,weatherlink.com 1.10,2013-02-15 04:07:00,
2013-02-14 23:22:00,38.3,30.0,29.70,WNW,282,10.0,19.0,72,0.00,,,0.00,weatherlink.com 1.10,2013-02-15 04:22:00,
2013-02-14 23:37:00,38.0,30.0,29.71,WNW,282,6.0,22.0,73,0.00,,,0.00,weatherlink.com 1.10,2013-02-15 04:37:00,
2013-02-14 23:52:00,37.4,29.0,29.71,WSW,258,10.0,25.0,71,0.00,,,0.00,weatherlink.com 1.10,2013-02-15 04:52:00,